createdAt,value
2022-10-18T00:02:01.967Z,102104.31
2022-10-18T00:04:28.363Z,102101.69
2022-10-18T00:06:54.702Z,102099.91
2022-10-18T00:09:21.043Z,102095.56
2022-10-18T00:11:47.371Z,102104.31
2022-10-18T00:14:13.742Z,102107.81
2022-10-18T00:16:40.093Z,102106.97
2022-10-18T00:19:06.391Z,102106.06
2022-10-18T00:21:32.746Z,102107.00
2022-10-18T00:23:59.088Z,102106.13
2022-10-18T00:26:28.334Z,102109.66
2022-10-18T00:29:00.438Z,102108.75
2022-10-18T00:31:32.834Z,102110.47
2022-10-18T00:34:02.155Z,102103.53
2022-10-18T00:36:30.235Z,102115.75
2022-10-18T00:38:57.255Z,102114.06
2022-10-18T00:41:26.676Z,102123.69
2022-10-18T00:44:16.188Z,102119.28
2022-10-18T00:46:44.880Z,102117.56
2022-10-18T00:49:13.734Z,102127.19
2022-10-18T00:51:44.855Z,102122.84
2022-10-18T00:54:13.341Z,102124.59
2022-10-18T00:56:39.848Z,102118.56
2022-10-18T00:59:07.759Z,102116.84
2022-10-18T01:01:34.322Z,102115.97
2022-10-18T01:04:00.821Z,102122.09
2022-10-18T01:06:28.708Z,102115.97
2022-10-18T01:09:21.102Z,102118.63
2022-10-18T01:12:08.593Z,102114.22
2022-10-18T01:14:52.687Z,102123.84
2022-10-18T01:17:51.024Z,102118.63
2022-10-18T01:20:43.573Z,102116.91
2022-10-18T01:23:54.981Z,102116.97
2022-10-18T01:26:48.701Z,102117.88
2022-10-18T01:29:33.331Z,102121.38
2022-10-18T01:32:04.152Z,102124.88
2022-10-18T01:34:35.030Z,102131.88
2022-10-18T01:37:04.867Z,102134.47
2022-10-18T01:39:36.690Z,102134.53
2022-10-18T01:42:08.748Z,102125.81
2022-10-18T01:44:38.101Z,102127.56
2022-10-18T01:47:06.656Z,102126.69
2022-10-18T01:49:33.341Z,102131.03
2022-10-18T01:51:59.707Z,102130.13
2022-10-18T01:54:35.656Z,102134.44
2022-10-18T01:57:12.149Z,102137.03
2022-10-18T01:59:47.971Z,102135.25
2022-10-18T02:02:44.194Z,102134.41
2022-10-18T02:05:33.084Z,102131.81
2022-10-18T02:08:22.861Z,102132.72
2022-10-18T02:10:55.430Z,102136.19
2022-10-18T02:13:25.198Z,102136.19
2022-10-18T02:15:56.176Z,102138.88
2022-10-18T02:18:28.753Z,102141.44
2022-10-18T02:20:56.376Z,102143.22
2022-10-18T02:23:26.246Z,102143.25
2022-10-18T02:25:53.379Z,102143.25
2022-10-18T02:28:20.390Z,102142.38
2022-10-18T02:30:54.373Z,102136.28
2022-10-18T02:33:34.047Z,102137.13
2022-10-18T02:36:10.664Z,102133.72
2022-10-18T02:38:39.556Z,102127.66
2022-10-18T02:41:06.164Z,102125.88
2022-10-18T02:43:32.467Z,102135.50
2022-10-18T02:45:58.936Z,102127.69
2022-10-18T02:48:25.264Z,102125.13
2022-10-18T02:50:51.566Z,102123.38
2022-10-18T02:53:17.860Z,102117.25
2022-10-18T02:55:44.187Z,102117.28
2022-10-18T02:58:10.465Z,102121.59
2022-10-18T03:00:36.770Z,102116.34
2022-10-18T03:03:03.090Z,102122.50
2022-10-18T03:05:29.375Z,102124.25
2022-10-18T03:07:58.688Z,102118.13
2022-10-18T03:10:24.970Z,102116.38
2022-10-18T03:12:51.273Z,102114.63
2022-10-18T03:15:17.548Z,102115.56
2022-10-18T03:17:43.851Z,102128.69
2022-10-18T03:20:10.773Z,102122.56
2022-10-18T03:22:37.236Z,102119.94
2022-10-18T03:25:03.756Z,102119.13
2022-10-18T03:27:30.367Z,102111.28
2022-10-18T03:29:56.911Z,102113.00
2022-10-18T03:32:23.200Z,102109.53
2022-10-18T03:34:49.512Z,102109.50
2022-10-18T03:37:15.808Z,102107.78
2022-10-18T03:39:42.104Z,102101.66
2022-10-18T03:42:08.386Z,102107.81
2022-10-18T03:44:34.713Z,102103.47
2022-10-18T03:47:01.120Z,102114.81
2022-10-18T03:49:27.499Z,102121.78
2022-10-18T03:51:53.830Z,102113.94
2022-10-18T03:54:20.211Z,102106.06
2022-10-18T03:56:46.575Z,102108.72
2022-10-18T03:59:13.534Z,102102.59
2022-10-18T04:01:39.858Z,102102.59
2022-10-18T04:04:06.212Z,102093.06
2022-10-18T04:06:32.507Z,102091.28
2022-10-18T04:08:58.796Z,102092.19
2022-10-18T04:11:25.091Z,102094.84
2022-10-18T04:13:51.420Z,102093.06
2022-10-18T04:16:17.727Z,102097.44
2022-10-18T04:18:44.017Z,102100.09
2022-10-18T04:21:10.314Z,102092.25
2022-10-18T04:23:38.753Z,102087.88
2022-10-18T04:26:05.667Z,102091.41
2022-10-18T04:28:33.624Z,102097.50
2022-10-18T04:30:59.984Z,102088.84
2022-10-18T04:33:26.378Z,102093.22
2022-10-18T04:35:53.229Z,102087.09
2022-10-18T04:38:20.082Z,102081.00
2022-10-18T04:40:46.694Z,102088.84
2022-10-18T04:43:13.023Z,102085.38
2022-10-18T04:45:39.355Z,102080.13
2022-10-18T04:48:06.008Z,102078.41
2022-10-18T04:50:32.336Z,102077.53
2022-10-18T04:52:58.637Z,102072.31
2022-10-18T04:55:25.091Z,102068.78
2022-10-18T04:57:52.977Z,102084.50
2022-10-18T05:00:19.456Z,102079.25
2022-10-18T05:02:45.743Z,102076.66
2022-10-18T05:05:14.118Z,102084.50
2022-10-18T05:07:40.733Z,102083.63
2022-10-18T05:10:07.786Z,102090.59
2022-10-18T05:12:34.368Z,102098.44
2022-10-18T05:15:00.915Z,102097.53
2022-10-18T05:17:27.222Z,102101.88
2022-10-18T05:19:53.513Z,102094.91
2022-10-18T05:22:19.788Z,102097.50
2022-10-18T05:24:46.083Z,102084.44
2022-10-18T05:27:12.377Z,102080.03
2022-10-18T05:29:39.179Z,102086.13
2022-10-18T05:32:05.480Z,102085.22
2022-10-18T05:34:32.035Z,102092.16
2022-10-18T05:36:58.393Z,102091.28
2022-10-18T05:39:24.794Z,102102.59
2022-10-18T05:41:51.135Z,102099.06
2022-10-18T05:44:17.491Z,102103.44
2022-10-18T05:46:43.849Z,102102.50
2022-10-18T05:49:12.707Z,102103.38
2022-10-18T05:51:39.172Z,102105.09
2022-10-18T05:54:05.500Z,102111.19
2022-10-18T05:56:31.876Z,102109.44
2022-10-18T05:58:58.244Z,102117.31
2022-10-18T06:01:24.508Z,102111.22
2022-10-18T06:03:50.830Z,102118.16
2022-10-18T06:06:17.174Z,102112.94
2022-10-18T06:08:44.362Z,102113.81
2022-10-18T06:11:13.216Z,102113.78
2022-10-18T06:13:43.692Z,102107.69
2022-10-18T06:16:10.860Z,102106.81
2022-10-18T06:18:37.614Z,102113.78
2022-10-18T06:21:04.201Z,102118.16
2022-10-18T06:23:30.613Z,102118.19
2022-10-18T06:26:05.454Z,102121.69
2022-10-18T06:28:34.737Z,102126.97
2022-10-18T06:31:01.365Z,102120.88
2022-10-18T06:33:27.748Z,102120.00
2022-10-18T06:35:59.392Z,102113.06
2022-10-18T06:38:26.786Z,102100.03
2022-10-18T06:40:53.753Z,102111.41
2022-10-18T06:43:21.508Z,102114.94
2022-10-18T06:45:48.970Z,102124.50
2022-10-18T06:48:15.856Z,102126.28
2022-10-18T06:50:42.570Z,102129.72
2022-10-18T06:53:09.519Z,102134.94
2022-10-18T06:55:36.083Z,102134.06
2022-10-18T06:58:02.494Z,102128.81
2022-10-18T07:00:28.863Z,102138.44
2022-10-18T07:02:56.740Z,102144.50
2022-10-18T07:05:23.103Z,102161.06
2022-10-18T07:07:52.901Z,102160.25
2022-10-18T07:10:22.158Z,102151.53
2022-10-18T07:12:48.506Z,102163.72
2022-10-18T07:15:15.004Z,102173.28
2022-10-18T07:17:41.701Z,102173.31
2022-10-18T07:20:08.263Z,102159.31
2022-10-18T07:22:34.583Z,102155.81
2022-10-18T07:25:00.868Z,102153.16
2022-10-18T07:27:27.177Z,102168.84
2022-10-18T07:29:53.524Z,102160.13
2022-10-18T07:32:19.995Z,102176.72
2022-10-18T07:34:46.284Z,102173.25
2022-10-18T07:37:12.616Z,102171.47
2022-10-18T07:39:39.041Z,102174.13
2022-10-18T07:42:05.436Z,102163.66
2022-10-18T07:44:31.736Z,102171.50
2022-10-18T07:46:58.187Z,102168.00
2022-10-18T07:49:24.537Z,102184.56
2022-10-18T07:51:50.853Z,102183.69
2022-10-18T07:54:17.258Z,102175.81
2022-10-18T07:56:43.530Z,102174.06
2022-10-18T07:59:11.113Z,102174.91
2022-10-18T08:01:37.514Z,102176.69
2022-10-18T08:04:07.488Z,102165.28
2022-10-18T08:06:35.367Z,102174.91
2022-10-18T08:09:01.647Z,102186.22
2022-10-18T08:11:28.121Z,102181.03
2022-10-18T08:13:54.549Z,102179.34
2022-10-18T08:16:24.122Z,102172.34
2022-10-18T08:18:51.261Z,102170.59
2022-10-18T08:21:19.721Z,102165.38
2022-10-18T08:23:46.647Z,102169.66
2022-10-18T08:26:16.734Z,102167.06
2022-10-18T08:28:53.506Z,102167.88
2022-10-18T08:31:30.674Z,102169.56
2022-10-18T08:33:57.298Z,102163.44
2022-10-18T08:36:23.753Z,102159.06
2022-10-18T08:38:50.118Z,102166.09
2022-10-18T08:41:36.858Z,102167.78
2022-10-18T08:44:12.056Z,102153.88
2022-10-18T08:46:42.305Z,102159.91
2022-10-18T08:49:22.570Z,102162.47
2022-10-18T08:51:51.177Z,102172.03
2022-10-18T08:54:38.305Z,102167.69
2022-10-18T08:57:13.478Z,102172.06
2022-10-18T08:59:41.389Z,102180.81
2022-10-18T09:02:31.500Z,102177.41
2022-10-18T09:05:14.316Z,102185.22
2022-10-18T09:07:51.540Z,102179.06
2022-10-18T09:10:46.285Z,102188.69
2022-10-18T09:13:50.238Z,102181.75
2022-10-18T09:16:38.165Z,102187.91
2022-10-18T09:19:26.387Z,102175.69
2022-10-18T09:21:55.005Z,102182.59
2022-10-18T09:25:04.406Z,102180.78
2022-10-18T09:28:02.756Z,102176.38
2022-10-18T09:30:50.413Z,102176.38
2022-10-18T09:33:34.596Z,102186.88
2022-10-18T09:36:07.800Z,102173.84
2022-10-18T09:38:44.369Z,102180.72
2022-10-18T09:41:18.311Z,102175.44
2022-10-18T09:43:54.331Z,102167.50
2022-10-18T09:46:24.924Z,102177.03
2022-10-18T09:48:58.452Z,102164.69
2022-10-18T09:51:28.865Z,102171.59
2022-10-18T09:54:03.722Z,102167.13
2022-10-18T09:56:39.385Z,102160.06
2022-10-18T09:59:33.859Z,102157.59
2022-10-18T10:02:00.353Z,102145.19
2022-10-18T10:04:27.275Z,102145.22
2022-10-18T10:06:55.928Z,102136.41
2022-10-18T10:09:40.607Z,102138.13
2022-10-18T10:12:24.497Z,102123.16
2022-10-18T10:14:50.797Z,102130.00
2022-10-18T10:17:31.747Z,102122.91
2022-10-18T10:20:14.292Z,102118.50
2022-10-18T10:22:42.098Z,102129.91
2022-10-18T10:25:31.434Z,102131.69
2022-10-18T10:28:03.846Z,102136.97
2022-10-18T10:30:33.149Z,102131.63
2022-10-18T10:32:59.596Z,102136.91
2022-10-18T10:35:54.256Z,102135.97
2022-10-18T10:38:25.907Z,102145.69
2022-10-18T10:40:53.093Z,102142.97
2022-10-18T10:43:40.437Z,102150.09
2022-10-18T10:46:10.631Z,102141.44
2022-10-18T10:49:21.748Z,102143.31
2022-10-18T10:51:50.631Z,102145.78
2022-10-18T10:54:26.820Z,102146.47
2022-10-18T10:57:12.432Z,102144.63
2022-10-18T10:59:44.855Z,102155.91
2022-10-18T11:02:14.351Z,102155.75
2022-10-18T11:04:42.102Z,102156.75
2022-10-18T11:07:33.281Z,102157.63
2022-10-18T11:10:12.183Z,102152.78
2022-10-18T11:12:45.031Z,102160.84
2022-10-18T11:15:14.351Z,102160.13
2022-10-18T11:18:14.638Z,102156.47
2022-10-18T11:20:46.555Z,102160.75
2022-10-18T11:23:17.494Z,102166.81
2022-10-18T11:26:07.940Z,102158.69
2022-10-18T11:28:59.037Z,102161.28
2022-10-18T11:31:35.670Z,102169.09
2022-10-18T11:34:29.964Z,102161.47
2022-10-18T11:37:37.560Z,102158.94
2022-10-18T11:40:25.863Z,102148.66
2022-10-18T11:43:06.899Z,102156.59
2022-10-18T11:45:46.092Z,102147.00
2022-10-18T11:48:27.630Z,102155.56
2022-10-18T11:51:09.464Z,102153.75
2022-10-18T11:53:35.739Z,102147.66
2022-10-18T11:56:20.862Z,102148.59
2022-10-18T11:59:10.961Z,102151.28
2022-10-18T12:01:43.808Z,102154.69
2022-10-18T12:04:15.776Z,102152.78
2022-10-18T12:06:45.614Z,102154.38
2022-10-18T12:09:37.490Z,102151.63
2022-10-18T12:12:16.231Z,102142.00
2022-10-18T12:14:49.128Z,102142.53
2022-10-18T12:17:51.030Z,102137.09
2022-10-18T12:20:17.108Z,102135.13
2022-10-18T12:22:50.676Z,102128.81
2022-10-18T12:25:18.862Z,102129.97
2022-10-18T12:28:06.149Z,102125.53
2022-10-18T12:30:42.253Z,102119.31
2022-10-18T12:33:33.467Z,102116.44
2022-10-18T12:36:26.944Z,102118.22
2022-10-18T12:38:58.392Z,102119.81
2022-10-18T12:41:29.003Z,102118.88
2022-10-18T12:44:05.730Z,102131.06
2022-10-18T12:46:53.455Z,102133.50
2022-10-18T12:49:29.715Z,102131.41
2022-10-18T12:52:00.667Z,102125.28
2022-10-18T12:54:38.172Z,102124.44
2022-10-18T12:57:23.044Z,102129.50
2022-10-18T12:59:49.823Z,102128.69
2022-10-18T13:02:22.566Z,102127.03
2022-10-18T13:04:49.022Z,102125.06
2022-10-18T13:07:32.607Z,102131.50
2022-10-18T13:10:12.249Z,102119.34
2022-10-18T13:12:59.406Z,102132.44
2022-10-18T13:15:44.146Z,102137.41
2022-10-18T13:18:34.059Z,102131.97
2022-10-18T13:21:20.231Z,102126.94
2022-10-18T13:23:57.397Z,102143.53
2022-10-18T13:26:35.919Z,102121.84
2022-10-18T13:29:26.400Z,102121.84
2022-10-18T13:32:06.977Z,102132.41
2022-10-18T13:34:38.725Z,102127.34
2022-10-18T13:37:11.249Z,102127.50
2022-10-18T13:39:39.883Z,102136.19
2022-10-18T13:42:15.029Z,102135.38
2022-10-18T13:44:43.599Z,102140.47
2022-10-18T13:47:14.963Z,102124.75
2022-10-18T13:50:12.078Z,102136.22
2022-10-18T13:53:09.658Z,102130.03
2022-10-18T13:55:55.121Z,102131.59
2022-10-18T13:58:34.547Z,102116.69
2022-10-18T14:01:29.832Z,102129.88
2022-10-18T14:04:17.765Z,102117.69
2022-10-18T14:06:47.172Z,102120.38
2022-10-18T14:09:40.274Z,102130.84
2022-10-18T14:12:43.404Z,102121.94
2022-10-18T14:15:25.626Z,102115.03
2022-10-18T14:18:13.894Z,102121.09
2022-10-18T14:21:01.463Z,102124.63
2022-10-18T14:23:41.495Z,102126.34
2022-10-18T14:26:12.792Z,102130.06
2022-10-18T14:28:58.460Z,102130.09
2022-10-18T14:31:25.674Z,102146.97
2022-10-18T14:33:57.560Z,102137.56
2022-10-18T14:36:26.771Z,102150.84
2022-10-18T14:39:04.831Z,102142.13
2022-10-18T14:41:33.578Z,102147.44
2022-10-18T14:44:14.947Z,102145.75
2022-10-18T14:47:01.808Z,102150.16
2022-10-18T14:49:28.790Z,102154.53
2022-10-18T14:51:58.352Z,102158.91
2022-10-18T14:54:32.026Z,102155.38
2022-10-18T14:57:00.387Z,102154.38
2022-10-18T14:59:29.477Z,102155.38
2022-10-18T15:02:14.718Z,102155.38
2022-10-18T15:04:44.783Z,102154.50
2022-10-18T15:07:16.662Z,102156.25
2022-10-18T15:09:44.273Z,102151.88
2022-10-18T15:12:13.393Z,102152.69
2022-10-18T15:14:41.685Z,102148.44
2022-10-18T15:17:25.996Z,102151.22
2022-10-18T15:20:21.253Z,102154.69
2022-10-18T15:22:47.938Z,102148.66
2022-10-18T15:25:16.321Z,102154.81
2022-10-18T15:27:46.184Z,102151.34
2022-10-18T15:30:37.444Z,102161.06
2022-10-18T15:33:09.577Z,102154.09
2022-10-18T15:35:38.214Z,102156.81
2022-10-18T15:38:15.469Z,102151.59
2022-10-18T15:40:42.875Z,102156.84
2022-10-18T15:43:24.401Z,102149.06
2022-10-18T15:45:58.746Z,102151.69
2022-10-18T15:48:35.566Z,102141.28
2022-10-18T15:51:04.652Z,102151.78
2022-10-18T15:53:41.712Z,102144.88
2022-10-18T15:56:30.737Z,102144.03
2022-10-18T15:58:59.543Z,102145.81
2022-10-18T16:01:34.825Z,102142.31
2022-10-18T16:04:07.003Z,102145.91
2022-10-18T16:06:37.266Z,102137.16
2022-10-18T16:09:04.372Z,102139.00
2022-10-18T16:11:30.734Z,102139.84
2022-10-18T16:13:59.573Z,102140.75
2022-10-18T16:16:28.718Z,102142.56
2022-10-18T16:18:58.680Z,102144.34
2022-10-18T16:21:31.291Z,102149.59
2022-10-18T16:23:57.891Z,102153.09
2022-10-18T16:26:25.173Z,102156.59
2022-10-18T16:28:51.736Z,102150.50
2022-10-18T16:31:21.084Z,102149.63
2022-10-18T16:33:48.820Z,102157.41
2022-10-18T16:36:17.294Z,102151.31
2022-10-18T16:38:44.184Z,102154.78
2022-10-18T16:41:11.256Z,102154.78
2022-10-18T16:43:38.160Z,102151.28
2022-10-18T16:46:05.988Z,102159.19
2022-10-18T16:48:33.072Z,102166.19
2022-10-18T16:50:59.566Z,102166.16
2022-10-18T16:53:26.182Z,102162.63
2022-10-18T16:55:56.062Z,102167.03
2022-10-18T17:00:50.822Z,102177.50
2022-10-18T17:03:17.185Z,102173.16
2022-10-18T17:05:43.782Z,102179.25
2022-10-18T17:08:27.892Z,102182.72
2022-10-18T17:10:57.188Z,102181.88
2022-10-18T17:13:24.617Z,102180.13
2022-10-18T17:15:51.794Z,102175.72
2022-10-18T17:18:26.129Z,102190.59
2022-10-18T17:20:52.728Z,102195.84
2022-10-18T17:23:19.095Z,102194.09
2022-10-18T17:25:57.766Z,102199.31
2022-10-18T17:28:32.840Z,102200.16
2022-10-18T17:30:59.148Z,102209.75
2022-10-18T17:33:25.448Z,102207.13
2022-10-18T17:35:51.731Z,102205.38
2022-10-18T17:38:18.012Z,102208.88
2022-10-18T17:40:44.289Z,102202.78
2022-10-18T17:43:13.154Z,102204.53
2022-10-18T17:45:49.610Z,102209.75
2022-10-18T17:48:15.959Z,102208.00
2022-10-18T17:50:42.366Z,102215.00
2022-10-18T17:53:10.573Z,102210.63
2022-10-18T17:55:36.840Z,102219.38
2022-10-18T17:58:03.315Z,102223.75
2022-10-18T18:00:29.654Z,102220.25
2022-10-18T18:03:00.112Z,102224.63
2022-10-18T18:05:31.510Z,102232.47
2022-10-18T18:08:02.721Z,102236.78
2022-10-18T18:10:32.983Z,102242.06
2022-10-18T18:12:59.486Z,102242.94
2022-10-18T18:15:25.835Z,102241.22
2022-10-18T18:17:56.964Z,102240.38
2022-10-18T18:20:24.314Z,102238.66
2022-10-18T18:22:51.686Z,102244.72
2022-10-18T18:25:18.123Z,102247.31
2022-10-18T18:27:44.440Z,102247.31
2022-10-18T18:30:11.136Z,102248.19
2022-10-18T18:32:37.402Z,102250.81
2022-10-18T18:35:03.963Z,102251.69
2022-10-18T18:37:30.322Z,102247.31
2022-10-18T18:39:56.664Z,102246.47
2022-10-18T18:42:23.006Z,102242.13
2022-10-18T18:44:49.907Z,102231.69
2022-10-18T18:49:47.583Z,102241.19
2022-10-18T18:52:13.903Z,102236.84
2022-10-18T18:54:40.216Z,102226.44
2022-10-18T18:57:06.572Z,102221.19
2022-10-18T18:59:32.894Z,102230.78
2022-10-18T19:01:59.211Z,102230.75
2022-10-18T19:04:25.567Z,102230.78
2022-10-18T19:06:51.876Z,102229.88
2022-10-18T19:09:20.498Z,102222.91
2022-10-18T19:11:48.577Z,102233.38
2022-10-18T19:14:15.483Z,102228.16
2022-10-18T19:16:47.361Z,102241.25
2022-10-18T19:19:19.706Z,102245.59
2022-10-18T19:21:49.318Z,102242.13
2022-10-18T19:24:15.776Z,102245.66
2022-10-18T19:26:50.819Z,102243.06
2022-10-18T19:29:24.637Z,102234.34
2022-10-18T19:31:52.736Z,102243.91
2022-10-18T19:34:20.711Z,102233.47
2022-10-18T19:36:48.906Z,102233.47
2022-10-18T19:39:20.001Z,102234.38
2022-10-18T19:41:51.348Z,102244.00
2022-10-18T19:44:18.954Z,102244.88
2022-10-18T19:46:45.719Z,102255.31
2022-10-18T19:49:12.171Z,102256.19
2022-10-18T19:51:38.786Z,102258.81
2022-10-18T19:54:05.299Z,102252.72
2022-10-18T19:56:31.636Z,102257.94
2022-10-18T19:58:59.527Z,102254.47
2022-10-18T20:01:27.546Z,102258.81
2022-10-18T20:03:54.240Z,102256.19
2022-10-18T20:06:20.897Z,102271.88
2022-10-18T20:08:47.815Z,102264.91
2022-10-18T20:11:21.465Z,102265.78
2022-10-18T20:13:48.333Z,102271.88
2022-10-18T20:16:16.997Z,102265.75
2022-10-18T20:18:43.583Z,102263.13
2022-10-18T20:21:12.459Z,102268.34
2022-10-18T20:23:40.391Z,102270.13
2022-10-18T20:26:10.050Z,102281.44
2022-10-18T20:28:38.201Z,102280.56
2022-10-18T20:31:07.629Z,102279.72
2022-10-18T20:33:35.393Z,102284.06
2022-10-18T20:36:07.390Z,102291.91
2022-10-18T20:38:35.458Z,102287.53
2022-10-18T20:41:06.991Z,102291.88
2022-10-18T20:43:34.483Z,102289.25
2022-10-18T20:46:01.595Z,102279.66
2022-10-18T20:48:29.034Z,102286.63
2022-10-18T20:50:55.400Z,102280.50
2022-10-18T20:53:25.092Z,102276.16
2022-10-18T20:55:51.372Z,102283.09
2022-10-18T20:58:17.863Z,102283.06
2022-10-18T21:00:44.173Z,102280.44
2022-10-18T21:03:13.238Z,102284.78
2022-10-18T21:05:39.566Z,102283.03
2022-10-18T21:08:05.867Z,102296.03
2022-10-18T21:10:32.280Z,102298.59
2022-10-18T21:12:58.622Z,102292.53
2022-10-18T21:15:24.952Z,102288.16
2022-10-18T21:17:51.635Z,102289.06
2022-10-18T21:20:18.695Z,102288.16
2022-10-18T21:22:45.049Z,102277.72
2022-10-18T21:25:11.393Z,102285.53
2022-10-18T21:27:37.733Z,102286.41
2022-10-18T21:30:04.494Z,102271.56
2022-10-18T21:32:31.271Z,102277.66
2022-10-18T21:34:58.034Z,102277.63
2022-10-18T21:37:24.396Z,102276.75
2022-10-18T21:39:50.669Z,102280.25
2022-10-18T21:42:16.977Z,102280.25
2022-10-18T21:44:43.262Z,102288.13
2022-10-18T21:47:09.542Z,102282.91
2022-10-18T21:49:35.911Z,102284.66
2022-10-18T21:52:05.308Z,102281.16
2022-10-18T21:54:31.671Z,102286.38
2022-10-18T21:56:57.979Z,102279.38
2022-10-18T21:59:24.310Z,102275.09
2022-10-18T22:01:51.874Z,102279.44
2022-10-18T22:04:23.506Z,102276.78
2022-10-18T22:06:50.741Z,102269.00
2022-10-18T22:09:17.572Z,102266.38
2022-10-18T22:11:48.844Z,102275.09
2022-10-18T22:14:15.152Z,102268.97
2022-10-18T22:16:41.477Z,102274.19
2022-10-18T22:19:07.993Z,102277.69
2022-10-18T22:21:35.203Z,102286.34
2022-10-18T22:24:07.796Z,102294.16
2022-10-18T22:26:37.327Z,102296.72
2022-10-18T22:29:21.800Z,102292.28
2022-10-18T22:31:52.268Z,102282.72
2022-10-18T22:34:28.871Z,102284.38
2022-10-18T22:36:55.447Z,102279.13
2022-10-18T22:39:21.988Z,102277.34
2022-10-18T22:41:51.976Z,102270.41
2022-10-18T22:44:18.257Z,102275.63
2022-10-18T22:46:44.568Z,102281.78
2022-10-18T22:49:11.636Z,102279.13
2022-10-18T22:51:37.932Z,102281.78
2022-10-18T22:54:04.264Z,102270.44
2022-10-18T22:56:30.589Z,102274.00
2022-10-18T22:58:56.979Z,102265.31
2022-10-18T23:01:23.962Z,102262.66
2022-10-18T23:03:55.169Z,102265.31
2022-10-18T23:06:25.729Z,102256.56
2022-10-18T23:08:53.876Z,102266.06
2022-10-18T23:11:20.485Z,102266.88
2022-10-18T23:13:47.320Z,102268.59
2022-10-18T23:16:14.767Z,102267.66
2022-10-18T23:18:41.118Z,102270.25
2022-10-18T23:21:12.972Z,102273.72
2022-10-18T23:23:41.972Z,102270.22
2022-10-18T23:26:14.329Z,102274.63
2022-10-18T23:28:43.346Z,102283.31
2022-10-18T23:31:12.589Z,102287.63
2022-10-18T23:33:39.880Z,102288.50
2022-10-18T23:36:07.971Z,102291.13
2022-10-18T23:38:35.340Z,102296.38
2022-10-18T23:41:01.643Z,102288.56
2022-10-18T23:43:28.078Z,102288.56
2022-10-18T23:45:54.455Z,102291.19
2022-10-18T23:48:20.823Z,102295.53
2022-10-18T23:50:47.181Z,102300.75
2022-10-18T23:53:13.556Z,102291.97
2022-10-18T23:55:39.898Z,102298.97
2022-10-18T23:58:06.189Z,102292.94
